Saint Helena Island, United Kingdom
Current Conditions -  °F | °C
As of 1:50 AM on Thursday 23 Oct 2014 (Local Time) from FHAW Reporting Station
Few Clouds Few Clouds  
Wind Chill: 73°   Ceiling: Unl
Heat Index: 73°   Visibility: 6mi
Dew Point: 64°   Wind: 15mph
Humidity: 73%   Direction: 140°SE
Pressure: 30.03"   Gusts: NA
Location:  15.93°S, 5.07°W
Report Text: FHAW 230050Z 14013KT 9999 FEW019 23/18 Q1017 BLU NOSIG
Loading
Personal Weather Stations






























Interactive Weather Map
Tropical Storm Tracking
New forecast layout! Learn more

10-Day Weather Forecast

Advertisements
Track Severe Weather on mobile